Indian Mound, Tennessee
Current Conditions -  °F | °C
As of 5:58 AM on Monday 26 Jan 2015 (Local Time) from KHOP Reporting Station
Overcast Overcast  
Wind Chill: 23°   Ceiling: 1200
Heat Index: 32°   Visibility: 10mi
Dew Point: 29°   Wind: 13mph
Humidity: 87%   Direction: 310°NW
Pressure: 29.96"   Gusts: 21mph
Location:  36.5°N, 87.69°W
Report Text: KHOP 261158Z AUTO 31011G18KT 10SM OVC012 00/M02 A2996 RMK AO2 SLP151 60000 70041 T00011019 10038 20000 52020
Loading
Personal Weather Stations






























Interactive Weather Map New forecast layout! Learn more

10-Day Weather Forecast

Advertisements
Track Severe Weather on mobile